sensor_id;sensor_type;location;lat;lon;timestamp;pressure;altitude;pressure_sealevel;temperature;humidity
62592;BME280;48659;41.622;2.276;2023-07-13T00:02:00;99812.23;;;29.40;40.64
62592;BME280;48659;41.622;2.276;2023-07-13T00:04:27;99812.43;;;29.20;41.79
62592;BME280;48659;41.622;2.276;2023-07-13T00:06:55;99811.98;;;28.75;42.67
62592;BME280;48659;41.622;2.276;2023-07-13T00:09:22;99814.71;;;29.40;41.63
62592;BME280;48659;41.622;2.276;2023-07-13T00:11:57;99815.16;;;28.47;41.68
62592;BME280;48659;41.622;2.276;2023-07-13T00:14:26;99816.77;;;28.91;42.48
62592;BME280;48659;41.622;2.276;2023-07-13T00:16:54;99816.23;;;29.07;41.54
62592;BME280;48659;41.622;2.276;2023-07-13T00:19:22;99813.58;;;29.58;41.84
62592;BME280;48659;41.622;2.276;2023-07-13T00:21:49;99811.77;;;29.16;41.36
62592;BME280;48659;41.622;2.276;2023-07-13T00:24:18;99810.39;;;29.35;41.78
62592;BME280;48659;41.622;2.276;2023-07-13T00:26:45;99807.35;;;29.19;42.50
62592;BME280;48659;41.622;2.276;2023-07-13T00:29:13;99809.14;;;27.96;43.99
62592;BME280;48659;41.622;2.276;2023-07-13T00:31:40;99807.40;;;28.66;43.04
62592;BME280;48659;41.622;2.276;2023-07-13T00:34:07;99809.97;;;28.43;43.84
62592;BME280;48659;41.622;2.276;2023-07-13T00:36:35;99808.61;;;28.87;42.71
62592;BME280;48659;41.622;2.276;2023-07-13T00:39:03;99810.31;;;28.52;43.63
62592;BME280;48659;41.622;2.276;2023-07-13T00:41:30;99810.96;;;28.19;43.85
62592;BME280;48659;41.622;2.276;2023-07-13T00:43:58;99815.05;;;28.45;43.41
62592;BME280;48659;41.622;2.276;2023-07-13T00:46:27;99811.72;;;28.86;42.72
62592;BME280;48659;41.622;2.276;2023-07-13T00:48:57;99811.25;;;28.34;42.37
62592;BME280;48659;41.622;2.276;2023-07-13T00:51:32;99812.66;;;29.32;41.91
62592;BME280;48659;41.622;2.276;2023-07-13T00:54:05;99815.41;;;29.18;41.46
62592;BME280;48659;41.622;2.276;2023-07-13T00:56:34;99813.68;;;29.25;41.98
62592;BME280;48659;41.622;2.276;2023-07-13T00:59:06;99821.26;;;26.42;47.48
62592;BME280;48659;41.622;2.276;2023-07-13T01:01:36;99813.96;;;28.24;44.60
62592;BME280;48659;41.622;2.276;2023-07-13T01:04:04;99815.40;;;28.40;43.57
62592;BME280;48659;41.622;2.276;2023-07-13T01:06:31;99814.83;;;29.01;42.50
62592;BME280;48659;41.622;2.276;2023-07-13T01:08:59;99812.30;;;28.14;44.33
62592;BME280;48659;41.622;2.276;2023-07-13T01:11:27;99817.09;;;27.34;46.04
62592;BME280;48659;41.622;2.276;2023-07-13T01:13:54;99807.68;;;28.38;43.90
62592;BME280;48659;41.622;2.276;2023-07-13T01:16:25;99806.09;;;28.49;43.23
62592;BME280;48659;41.622;2.276;2023-07-13T01:18:53;99804.85;;;28.40;43.05
62592;BME280;48659;41.622;2.276;2023-07-13T01:21:20;99805.53;;;28.92;42.96
62592;BME280;48659;41.622;2.276;2023-07-13T01:23:49;99808.81;;;28.61;42.65
62592;BME280;48659;41.622;2.276;2023-07-13T01:26:16;99814.85;;;28.74;42.86
62592;BME280;48659;41.622;2.276;2023-07-13T01:28:44;99817.78;;;28.77;42.90
62592;BME280;48659;41.622;2.276;2023-07-13T01:31:12;99819.81;;;28.86;42.51
62592;BME280;48659;41.622;2.276;2023-07-13T01:33:40;99816.96;;;28.83;42.24
62592;BME280;48659;41.622;2.276;2023-07-13T01:36:11;99814.04;;;29.08;41.99
62592;BME280;48659;41.622;2.276;2023-07-13T01:38:38;99814.39;;;29.05;41.99
62592;BME280;48659;41.622;2.276;2023-07-13T01:41:06;99812.41;;;29.17;41.77
62592;BME280;48659;41.622;2.276;2023-07-13T01:43:33;99812.01;;;29.38;41.46
62592;BME280;48659;41.622;2.276;2023-07-13T01:46:01;99810.08;;;29.02;41.23
62592;BME280;48659;41.622;2.276;2023-07-13T01:48:29;99810.41;;;29.24;41.56
62592;BME280;48659;41.622;2.276;2023-07-13T01:50:56;99808.67;;;29.57;40.99
62592;BME280;48659;41.622;2.276;2023-07-13T01:53:24;99807.46;;;28.97;41.87
62592;BME280;48659;41.622;2.276;2023-07-13T01:55:53;99808.89;;;28.31;42.21
62592;BME280;48659;41.622;2.276;2023-07-13T01:58:20;99807.10;;;28.88;42.10
62592;BME280;48659;41.622;2.276;2023-07-13T02:00:55;99805.99;;;28.49;42.01
62592;BME280;48659;41.622;2.276;2023-07-13T02:03:22;99803.58;;;28.73;41.91
62592;BME280;48659;41.622;2.276;2023-07-13T02:05:50;99802.76;;;28.62;41.81
62592;BME280;48659;41.622;2.276;2023-07-13T02:08:18;99804.50;;;28.87;42.09
62592;BME280;48659;41.622;2.276;2023-07-13T02:10:45;99803.49;;;28.61;42.38
62592;BME280;48659;41.622;2.276;2023-07-13T02:13:13;99805.80;;;28.09;43.79
62592;BME280;48659;41.622;2.276;2023-07-13T02:15:40;99808.35;;;28.55;43.22
62592;BME280;48659;41.622;2.276;2023-07-13T02:18:09;99807.19;;;28.06;44.30
62592;BME280;48659;41.622;2.276;2023-07-13T02:20:36;99808.25;;;27.78;44.90
62592;BME280;48659;41.622;2.276;2023-07-13T02:23:03;99806.23;;;28.29;43.53
62592;BME280;48659;41.622;2.276;2023-07-13T02:25:31;99807.97;;;28.21;44.04
62592;BME280;48659;41.622;2.276;2023-07-13T02:27:59;99813.38;;;27.49;45.10
62592;BME280;48659;41.622;2.276;2023-07-13T02:30:27;99812.29;;;27.09;45.78
62592;BME280;48659;41.622;2.276;2023-07-13T02:32:55;99806.97;;;27.21;46.16
62592;BME280;48659;41.622;2.276;2023-07-13T02:35:24;99806.46;;;26.62;47.77
62592;BME280;48659;41.622;2.276;2023-07-13T02:37:51;99806.89;;;26.75;46.92
62592;BME280;48659;41.622;2.276;2023-07-13T02:40:19;99808.30;;;26.69;46.97
62592;BME280;48659;41.622;2.276;2023-07-13T02:42:47;99810.36;;;27.20;46.14
62592;BME280;48659;41.622;2.276;2023-07-13T02:45:15;99816.73;;;27.10;46.46
62592;BME280;48659;41.622;2.276;2023-07-13T02:47:43;99818.38;;;27.24;45.77
62592;BME280;48659;41.622;2.276;2023-07-13T02:50:10;99816.20;;;27.86;44.64
62592;BME280;48659;41.622;2.276;2023-07-13T02:52:38;99819.67;;;27.08;46.53
62592;BME280;48659;41.622;2.276;2023-07-13T02:55:07;99823.27;;;27.41;45.72
62592;BME280;48659;41.622;2.276;2023-07-13T02:57:34;99818.89;;;27.79;44.61
62592;BME280;48659;41.622;2.276;2023-07-13T03:00:02;99817.65;;;28.36;43.34
62592;BME280;48659;41.622;2.276;2023-07-13T03:02:30;99821.98;;;28.29;42.94
62592;BME280;48659;41.622;2.276;2023-07-13T03:04:58;99826.17;;;28.28;42.60
62592;BME280;48659;41.622;2.276;2023-07-13T03:07:26;99832.44;;;28.83;42.51
62592;BME280;48659;41.622;2.276;2023-07-13T03:09:56;99835.41;;;28.07;43.62
62592;BME280;48659;41.622;2.276;2023-07-13T03:12:24;99837.70;;;28.16;43.17
62592;BME280;48659;41.622;2.276;2023-07-13T03:14:51;99838.86;;;28.52;42.58
62592;BME280;48659;41.622;2.276;2023-07-13T03:17:19;99835.01;;;28.70;43.14
62592;BME280;48659;41.622;2.276;2023-07-13T03:19:47;99841.44;;;28.23;43.89
62592;BME280;48659;41.622;2.276;2023-07-13T03:22:14;99841.31;;;28.51;43.12
62592;BME280;48659;41.622;2.276;2023-07-13T03:24:42;99840.42;;;28.69;42.88
62592;BME280;48659;41.622;2.276;2023-07-13T03:27:09;99835.61;;;28.39;43.60
62592;BME280;48659;41.622;2.276;2023-07-13T03:29:37;99842.49;;;28.05;43.84
62592;BME280;48659;41.622;2.276;2023-07-13T03:32:06;99846.40;;;28.07;43.82
62592;BME280;48659;41.622;2.276;2023-07-13T03:34:34;99850.46;;;28.28;43.80
62592;BME280;48659;41.622;2.276;2023-07-13T03:37:02;99853.97;;;27.82;44.20
62592;BME280;48659;41.622;2.276;2023-07-13T03:39:29;99857.34;;;27.93;44.39
62592;BME280;48659;41.622;2.276;2023-07-13T03:41:57;99852.52;;;28.05;44.18
62592;BME280;48659;41.622;2.276;2023-07-13T03:44:24;99856.40;;;27.34;45.39
62592;BME280;48659;41.622;2.276;2023-07-13T03:46:52;99858.35;;;27.38;45.32
62592;BME280;48659;41.622;2.276;2023-07-13T03:49:19;99853.53;;;26.69;46.90
62592;BME280;48659;41.622;2.276;2023-07-13T03:51:47;99857.10;;;26.82;47.11
62592;BME280;48659;41.622;2.276;2023-07-13T03:54:14;99858.60;;;27.32;45.88
62592;BME280;48659;41.622;2.276;2023-07-13T03:56:41;99857.43;;;27.06;46.11
62592;BME280;48659;41.622;2.276;2023-07-13T03:59:09;99859.61;;;26.80;46.48
62592;BME280;48659;41.622;2.276;2023-07-13T04:01:38;99863.11;;;27.13;45.45
62592;BME280;48659;41.622;2.276;2023-07-13T04:04:05;99864.74;;;26.58;46.79
62592;BME280;48659;41.622;2.276;2023-07-13T04:06:34;99873.48;;;24.11;52.75
62592;BME280;48659;41.622;2.276;2023-07-13T04:09:03;99877.38;;;24.88;51.08
62592;BME280;48659;41.622;2.276;2023-07-13T04:11:32;99880.46;;;24.89;51.30
62592;BME280;48659;41.622;2.276;2023-07-13T04:14:00;99879.20;;;24.87;51.67
62592;BME280;48659;41.622;2.276;2023-07-13T04:16:28;99878.45;;;24.58;52.28
62592;BME280;48659;41.622;2.276;2023-07-13T04:18:56;99880.90;;;23.15;54.45
62592;BME280;48659;41.622;2.276;2023-07-13T04:21:24;99879.53;;;24.65;52.44
62592;BME280;48659;41.622;2.276;2023-07-13T04:23:55;99883.28;;;24.49;51.11
62592;BME280;48659;41.622;2.276;2023-07-13T04:26:23;99883.84;;;25.83;49.42
62592;BME280;48659;41.622;2.276;2023-07-13T04:28:51;99886.37;;;25.38;49.70
62592;BME280;48659;41.622;2.276;2023-07-13T04:31:18;99884.89;;;25.96;48.64
62592;BME280;48659;41.622;2.276;2023-07-13T04:33:47;99882.70;;;26.71;47.25
62592;BME280;48659;41.622;2.276;2023-07-13T04:36:16;99883.31;;;26.15;47.31
62592;BME280;48659;41.622;2.276;2023-07-13T04:38:43;99886.38;;;25.83;49.66
62592;BME280;48659;41.622;2.276;2023-07-13T04:41:13;99888.56;;;26.21;48.60
62592;BME280;48659;41.622;2.276;2023-07-13T04:43:40;99887.14;;;26.37;47.85
62592;BME280;48659;41.622;2.276;2023-07-13T04:46:09;99886.36;;;27.10;46.70
62592;BME280;48659;41.622;2.276;2023-07-13T04:48:37;99888.39;;;26.94;46.29
62592;BME280;48659;41.622;2.276;2023-07-13T04:51:06;99892.50;;;27.00;45.86
62592;BME280;48659;41.622;2.276;2023-07-13T04:53:34;99894.34;;;27.05;45.77
62592;BME280;48659;41.622;2.276;2023-07-13T04:56:01;99894.85;;;26.70;47.34
62592;BME280;48659;41.622;2.276;2023-07-13T04:58:29;99900.97;;;26.11;48.29
62592;BME280;48659;41.622;2.276;2023-07-13T05:01:00;99906.13;;;23.31;53.84
62592;BME280;48659;41.622;2.276;2023-07-13T05:03:28;99904.19;;;25.08;51.08
62592;BME280;48659;41.622;2.276;2023-07-13T05:05:57;99906.68;;;24.67;53.21
62592;BME280;48659;41.622;2.276;2023-07-13T05:08:26;99913.19;;;22.96;57.15
62592;BME280;48659;41.622;2.276;2023-07-13T05:10:53;99909.36;;;23.96;55.04
62592;BME280;48659;41.622;2.276;2023-07-13T05:13:22;99908.50;;;24.44;53.27
62592;BME280;48659;41.622;2.276;2023-07-13T05:15:57;99915.46;;;23.27;55.53
62592;BME280;48659;41.622;2.276;2023-07-13T05:18:25;99918.67;;;24.93;53.06
62592;BME280;48659;41.622;2.276;2023-07-13T05:20:58;99921.20;;;24.84;52.02
62592;BME280;48659;41.622;2.276;2023-07-13T05:23:26;99926.94;;;25.35;50.64
62592;BME280;48659;41.622;2.276;2023-07-13T05:25:53;99927.58;;;26.11;48.96
62592;BME280;48659;41.622;2.276;2023-07-13T05:28:21;99923.66;;;26.85;47.71
62592;BME280;48659;41.622;2.276;2023-07-13T05:30:49;99925.24;;;27.34;45.72
62592;BME280;48659;41.622;2.276;2023-07-13T05:33:17;99931.11;;;27.50;45.30
62592;BME280;48659;41.622;2.276;2023-07-13T05:35:45;99924.29;;;26.77;46.85
62592;BME280;48659;41.622;2.276;2023-07-13T05:38:13;99926.43;;;27.69;44.86
62592;BME280;48659;41.622;2.276;2023-07-13T05:40:43;99923.75;;;26.84;46.49
62592;BME280;48659;41.622;2.276;2023-07-13T05:43:11;99924.98;;;27.66;45.59
62592;BME280;48659;41.622;2.276;2023-07-13T05:45:38;99924.92;;;27.52;45.38
62592;BME280;48659;41.622;2.276;2023-07-13T05:48:06;99924.43;;;27.77;44.13
62592;BME280;48659;41.622;2.276;2023-07-13T05:50:33;99930.73;;;27.15;45.31
62592;BME280;48659;41.622;2.276;2023-07-13T05:53:01;99931.83;;;27.38;45.69
62592;BME280;48659;41.622;2.276;2023-07-13T05:55:28;99930.42;;;27.11;46.25
62592;BME280;48659;41.622;2.276;2023-07-13T05:57:55;99930.86;;;26.27;47.82
62592;BME280;48659;41.622;2.276;2023-07-13T06:00:23;99933.12;;;26.42;47.54
62592;BME280;48659;41.622;2.276;2023-07-13T06:02:50;99936.85;;;27.21;45.58
62592;BME280;48659;41.622;2.276;2023-07-13T06:05:18;99940.84;;;27.59;44.70
62592;BME280;48659;41.622;2.276;2023-07-13T06:07:45;99938.00;;;28.30;43.64
62592;BME280;48659;41.622;2.276;2023-07-13T06:10:13;99939.21;;;28.59;42.75
62592;BME280;48659;41.622;2.276;2023-07-13T06:12:40;99935.92;;;28.77;42.05
62592;BME280;48659;41.622;2.276;2023-07-13T06:15:09;99935.54;;;29.03;41.41
62592;BME280;48659;41.622;2.276;2023-07-13T06:17:36;99937.74;;;29.09;41.06
62592;BME280;48659;41.622;2.276;2023-07-13T06:20:05;99938.54;;;29.45;40.73
62592;BME280;48659;41.622;2.276;2023-07-13T06:22:33;99941.75;;;29.60;40.26
62592;BME280;48659;41.622;2.276;2023-07-13T06:25:00;99941.42;;;29.86;39.86
62592;BME280;48659;41.622;2.276;2023-07-13T06:27:28;99943.03;;;29.95;39.38
62592;BME280;48659;41.622;2.276;2023-07-13T06:29:56;99940.82;;;30.36;38.52
62592;BME280;48659;41.622;2.276;2023-07-13T06:32:23;99937.35;;;30.21;38.56
62592;BME280;48659;41.622;2.276;2023-07-13T06:34:51;99941.58;;;29.57;39.81
62592;BME280;48659;41.622;2.276;2023-07-13T06:37:19;99944.00;;;30.43;39.35
62592;BME280;48659;41.622;2.276;2023-07-13T06:39:46;99942.25;;;30.13;39.30
62592;BME280;48659;41.622;2.276;2023-07-13T06:42:15;99943.42;;;30.39;38.94
62592;BME280;48659;41.622;2.276;2023-07-13T06:44:43;99943.02;;;31.03;37.94
62592;BME280;48659;41.622;2.276;2023-07-13T06:47:11;99946.25;;;30.91;37.94
62592;BME280;48659;41.622;2.276;2023-07-13T06:49:39;99949.83;;;30.92;38.12
62592;BME280;48659;41.622;2.276;2023-07-13T06:52:06;99953.60;;;30.54;37.95
62592;BME280;48659;41.622;2.276;2023-07-13T06:54:33;99956.19;;;30.92;38.16
62592;BME280;48659;41.622;2.276;2023-07-13T06:57:01;99956.31;;;30.72;38.76
62592;BME280;48659;41.622;2.276;2023-07-13T06:59:29;99959.69;;;30.90;38.26
62592;BME280;48659;41.622;2.276;2023-07-13T07:01:56;99960.25;;;31.32;37.80
62592;BME280;48659;41.622;2.276;2023-07-13T07:04:24;99962.87;;;30.97;38.62
62592;BME280;48659;41.622;2.276;2023-07-13T07:06:57;99961.86;;;30.61;38.00
62592;BME280;48659;41.622;2.276;2023-07-13T07:09:25;99963.62;;;31.05;37.88
62592;BME280;48659;41.622;2.276;2023-07-13T07:11:55;99964.22;;;30.40;37.91
62592;BME280;48659;41.622;2.276;2023-07-13T07:14:23;99963.44;;;31.13;38.02
62592;BME280;48659;41.622;2.276;2023-07-13T07:16:50;99968.49;;;30.93;37.89
62592;BME280;48659;41.622;2.276;2023-07-13T07:19:18;99972.55;;;31.21;37.95
62592;BME280;48659;41.622;2.276;2023-07-13T07:21:46;99977.78;;;31.45;37.89
62592;BME280;48659;41.622;2.276;2023-07-13T07:24:23;99977.70;;;31.48;36.94
62592;BME280;48659;41.622;2.276;2023-07-13T07:26:56;99979.61;;;31.46;36.85
62592;BME280;48659;41.622;2.276;2023-07-13T07:29:23;99978.83;;;31.60;36.46
62592;BME280;48659;41.622;2.276;2023-07-13T07:31:51;99979.35;;;31.51;36.56
62592;BME280;48659;41.622;2.276;2023-07-13T07:34:19;99978.72;;;31.33;36.80
62592;BME280;48659;41.622;2.276;2023-07-13T07:36:58;99982.66;;;30.68;38.31
62592;BME280;48659;41.622;2.276;2023-07-13T07:39:26;99985.32;;;31.33;37.83
62592;BME280;48659;41.622;2.276;2023-07-13T07:41:55;99990.36;;;30.83;37.85
62592;BME280;48659;41.622;2.276;2023-07-13T07:44:23;99990.65;;;31.26;37.92
62592;BME280;48659;41.622;2.276;2023-07-13T07:46:51;99990.82;;;30.83;38.84
62592;BME280;48659;41.622;2.276;2023-07-13T07:49:18;99988.53;;;30.73;38.95
62592;BME280;48659;41.622;2.276;2023-07-13T07:52:00;99992.45;;;31.29;38.10
62592;BME280;48659;41.622;2.276;2023-07-13T07:54:28;99989.35;;;30.86;38.33
62592;BME280;48659;41.622;2.276;2023-07-13T07:56:55;99983.24;;;30.72;37.99
62592;BME280;48659;41.622;2.276;2023-07-13T07:59:23;99982.26;;;31.52;37.00
62592;BME280;48659;41.622;2.276;2023-07-13T08:01:55;99986.10;;;29.54;39.42
62592;BME280;48659;41.622;2.276;2023-07-13T08:04:22;99986.42;;;30.44;39.21
62592;BME280;48659;41.622;2.276;2023-07-13T08:06:49;99988.80;;;31.04;38.65
62592;BME280;48659;41.622;2.276;2023-07-13T08:09:16;99987.78;;;31.18;38.52
62592;BME280;48659;41.622;2.276;2023-07-13T08:11:44;99987.43;;;31.31;37.96
62592;BME280;48659;41.622;2.276;2023-07-13T08:14:11;99986.55;;;31.51;37.21
62592;BME280;48659;41.622;2.276;2023-07-13T08:16:39;99988.83;;;30.79;38.22
62592;BME280;48659;41.622;2.276;2023-07-13T08:19:06;99986.72;;;31.25;38.22
62592;BME280;48659;41.622;2.276;2023-07-13T08:21:34;99988.81;;;31.24;38.29
62592;BME280;48659;41.622;2.276;2023-07-13T08:24:02;99985.91;;;31.41;37.70
62592;BME280;48659;41.622;2.276;2023-07-13T08:26:30;99985.62;;;31.59;37.36
62592;BME280;48659;41.622;2.276;2023-07-13T08:28:57;99986.31;;;31.12;38.63
62592;BME280;48659;41.622;2.276;2023-07-13T08:31:24;99984.99;;;31.00;38.64
62592;BME280;48659;41.622;2.276;2023-07-13T08:33:52;99988.53;;;30.82;38.74
62592;BME280;48659;41.622;2.276;2023-07-13T08:36:19;99982.35;;;30.98;38.36
62592;BME280;48659;41.622;2.276;2023-07-13T08:38:47;99983.95;;;31.78;37.49
62592;BME280;48659;41.622;2.276;2023-07-13T08:41:16;99982.28;;;31.89;37.40
62592;BME280;48659;41.622;2.276;2023-07-13T08:44:00;99983.50;;;31.90;37.38
62592;BME280;48659;41.622;2.276;2023-07-13T08:46:34;99983.46;;;32.02;37.26
62592;BME280;48659;41.622;2.276;2023-07-13T08:49:04;99986.33;;;31.79;37.71
62592;BME280;48659;41.622;2.276;2023-07-13T08:51:40;99982.61;;;32.02;37.50
62592;BME280;48659;41.622;2.276;2023-07-13T08:54:19;99985.65;;;32.11;37.47
62592;BME280;48659;41.622;2.276;2023-07-13T08:56:50;99984.38;;;31.98;37.44
62592;BME280;48659;41.622;2.276;2023-07-13T08:59:20;99982.21;;;31.50;37.85
62592;BME280;48659;41.622;2.276;2023-07-13T09:02:05;99980.71;;;31.20;37.23
62592;BME280;48659;41.622;2.276;2023-07-13T09:04:43;99981.91;;;32.15;36.44
62592;BME280;48659;41.622;2.276;2023-07-13T09:07:19;99979.10;;;32.13;35.97
62592;BME280;48659;41.622;2.276;2023-07-13T09:10:03;99977.54;;;32.52;35.84
62592;BME280;48659;41.622;2.276;2023-07-13T09:12:42;99972.25;;;31.78;36.92
62592;BME280;48659;41.622;2.276;2023-07-13T09:15:23;99971.65;;;31.47;36.77
62592;BME280;48659;41.622;2.276;2023-07-13T09:17:58;99979.33;;;31.62;36.23
62592;BME280;48659;41.622;2.276;2023-07-13T09:20:30;99976.74;;;31.71;36.16
62592;BME280;48659;41.622;2.276;2023-07-13T09:23:00;99974.93;;;31.31;36.05
62592;BME280;48659;41.622;2.276;2023-07-13T09:25:31;99976.82;;;31.57;36.17
62592;BME280;48659;41.622;2.276;2023-07-13T09:28:02;99980.95;;;32.03;35.94
62592;BME280;48659;41.622;2.276;2023-07-13T09:30:36;99983.41;;;32.44;35.55
62592;BME280;48659;41.622;2.276;2023-07-13T09:33:07;99986.44;;;31.47;36.00
62592;BME280;48659;41.622;2.276;2023-07-13T09:35:35;99986.53;;;31.55;35.54
62592;BME280;48659;41.622;2.276;2023-07-13T09:38:11;99986.57;;;30.96;36.56
62592;BME280;48659;41.622;2.276;2023-07-13T09:40:53;99984.41;;;31.54;36.04
62592;BME280;48659;41.622;2.276;2023-07-13T09:43:25;99985.63;;;32.06;35.23
62592;BME280;48659;41.622;2.276;2023-07-13T09:45:56;99980.56;;;31.67;35.34
62592;BME280;48659;41.622;2.276;2023-07-13T09:48:24;99987.30;;;31.89;35.97
62592;BME280;48659;41.622;2.276;2023-07-13T09:50:55;99992.09;;;32.29;34.18
62592;BME280;48659;41.622;2.276;2023-07-13T09:53:22;99994.71;;;33.01;33.70
62592;BME280;48659;41.622;2.276;2023-07-13T09:55:50;99997.51;;;32.75;33.74
62592;BME280;48659;41.622;2.276;2023-07-13T09:58:20;99998.03;;;33.19;34.38
62592;BME280;48659;41.622;2.276;2023-07-13T10:00:57;99999.04;;;32.05;36.36
62592;BME280;48659;41.622;2.276;2023-07-13T10:03:26;99996.70;;;33.07;35.61
62592;BME280;48659;41.622;2.276;2023-07-13T10:06:09;99996.42;;;31.70;38.02
62592;BME280;48659;41.622;2.276;2023-07-13T10:08:38;100006.08;;;32.84;36.91
62592;BME280;48659;41.622;2.276;2023-07-13T10:11:11;100004.33;;;32.46;36.76
62592;BME280;48659;41.622;2.276;2023-07-13T10:13:43;100002.54;;;32.81;36.55
62592;BME280;48659;41.622;2.276;2023-07-13T10:16:12;100003.71;;;33.08;36.69
62592;BME280;48659;41.622;2.276;2023-07-13T10:18:44;100009.21;;;33.10;36.99
62592;BME280;48659;41.622;2.276;2023-07-13T10:21:15;100003.73;;;32.96;36.33
62592;BME280;48659;41.622;2.276;2023-07-13T10:23:47;100007.73;;;32.17;38.16
62592;BME280;48659;41.622;2.276;2023-07-13T10:26:21;100004.30;;;30.97;40.04
62592;BME280;48659;41.622;2.276;2023-07-13T10:29:00;100004.41;;;31.85;38.06
62592;BME280;48659;41.622;2.276;2023-07-13T10:31:30;100004.12;;;30.70;40.69
62592;BME280;48659;41.622;2.276;2023-07-13T10:33:58;100010.36;;;28.38;44.23
62592;BME280;48659;41.622;2.276;2023-07-13T10:36:34;100007.76;;;30.60;41.88
62592;BME280;48659;41.622;2.276;2023-07-13T10:39:06;100014.49;;;30.84;42.29
62592;BME280;48659;41.622;2.276;2023-07-13T10:41:38;100012.17;;;31.22;40.41
62592;BME280;48659;41.622;2.276;2023-07-13T10:44:19;100012.44;;;31.83;39.77
62592;BME280;48659;41.622;2.276;2023-07-13T10:46:48;100012.85;;;31.49;41.34
62592;BME280;48659;41.622;2.276;2023-07-13T10:49:17;100010.88;;;31.66;40.96
62592;BME280;48659;41.622;2.276;2023-07-13T10:51:45;100022.84;;;29.91;44.64
62592;BME280;48659;41.622;2.276;2023-07-13T10:54:22;100024.13;;;30.55;42.66
62592;BME280;48659;41.622;2.276;2023-07-13T10:57:14;100019.75;;;30.64;42.28
62592;BME280;48659;41.622;2.276;2023-07-13T10:59:43;100023.50;;;30.60;43.68
62592;BME280;48659;41.622;2.276;2023-07-13T11:02:23;100017.66;;;30.94;42.04
62592;BME280;48659;41.622;2.276;2023-07-13T11:04:57;100018.62;;;30.70;42.72
62592;BME280;48659;41.622;2.276;2023-07-13T11:07:26;100013.46;;;30.52;42.79
62592;BME280;48659;41.622;2.276;2023-07-13T11:09:57;100016.86;;;29.11;44.82
62592;BME280;48659;41.622;2.276;2023-07-13T11:12:54;100019.12;;;30.74;43.36
62592;BME280;48659;41.622;2.276;2023-07-13T11:15:44;100018.29;;;31.01;42.89
62592;BME280;48659;41.622;2.276;2023-07-13T11:18:23;100015.63;;;31.34;42.38
62592;BME280;48659;41.622;2.276;2023-07-13T11:21:13;100015.15;;;30.02;43.52
62592;BME280;48659;41.622;2.276;2023-07-13T11:23:43;100014.57;;;31.36;41.89
62592;BME280;48659;41.622;2.276;2023-07-13T11:26:39;100010.66;;;29.65;44.48
62592;BME280;48659;41.622;2.276;2023-07-13T11:29:12;100016.26;;;30.13;42.76
62592;BME280;48659;41.622;2.276;2023-07-13T11:31:53;100007.67;;;30.63;41.17
62592;BME280;48659;41.622;2.276;2023-07-13T11:34:25;100008.18;;;30.82;40.07
62592;BME280;48659;41.622;2.276;2023-07-13T11:36:55;99999.95;;;30.98;40.06
62592;BME280;48659;41.622;2.276;2023-07-13T11:39:29;99997.74;;;31.29;38.76
62592;BME280;48659;41.622;2.276;2023-07-13T11:42:01;99996.48;;;30.73;39.05
62592;BME280;48659;41.622;2.276;2023-07-13T11:44:31;99994.51;;;30.45;39.05
62592;BME280;48659;41.622;2.276;2023-07-13T11:47:00;99996.03;;;31.00;38.22
62592;BME280;48659;41.622;2.276;2023-07-13T11:49:42;99995.43;;;31.48;37.23
62592;BME280;48659;41.622;2.276;2023-07-13T11:52:12;99987.31;;;31.14;36.50
62592;BME280;48659;41.622;2.276;2023-07-13T11:54:48;99987.42;;;31.76;35.99
62592;BME280;48659;41.622;2.276;2023-07-13T11:57:23;99986.18;;;32.53;34.23
62592;BME280;48659;41.622;2.276;2023-07-13T11:59:53;99980.81;;;31.94;33.75
62592;BME280;48659;41.622;2.276;2023-07-13T12:02:28;99985.97;;;30.63;35.41
62592;BME280;48659;41.622;2.276;2023-07-13T12:04:57;99977.95;;;32.20;33.67
62592;BME280;48659;41.622;2.276;2023-07-13T12:07:28;99978.91;;;31.07;34.98
62592;BME280;48659;41.622;2.276;2023-07-13T12:10:01;99978.50;;;30.66;34.40
62592;BME280;48659;41.622;2.276;2023-07-13T12:12:30;99980.34;;;30.59;35.79
62592;BME280;48659;41.622;2.276;2023-07-13T12:14:58;99979.19;;;30.99;34.51
62592;BME280;48659;41.622;2.276;2023-07-13T12:17:26;99974.35;;;31.93;34.00
62592;BME280;48659;41.622;2.276;2023-07-13T12:19:53;99979.25;;;31.06;34.78
62592;BME280;48659;41.622;2.276;2023-07-13T12:22:21;99978.71;;;29.93;36.99
62592;BME280;48659;41.622;2.276;2023-07-13T12:24:56;99974.68;;;29.77;35.65
62592;BME280;48659;41.622;2.276;2023-07-13T12:27:26;99974.57;;;31.31;34.32
62592;BME280;48659;41.622;2.276;2023-07-13T12:30:00;99972.08;;;31.07;33.96
62592;BME280;48659;41.622;2.276;2023-07-13T12:32:28;99976.54;;;30.52;34.93
62592;BME280;48659;41.622;2.276;2023-07-13T12:35:01;99974.09;;;31.58;33.22
62592;BME280;48659;41.622;2.276;2023-07-13T12:37:29;99973.59;;;31.53;32.86
62592;BME280;48659;41.622;2.276;2023-07-13T12:40:01;99972.87;;;30.65;34.17
62592;BME280;48659;41.622;2.276;2023-07-13T12:42:32;99973.02;;;30.14;34.18
62592;BME280;48659;41.622;2.276;2023-07-13T12:45:02;99965.93;;;31.63;32.14
62592;BME280;48659;41.622;2.276;2023-07-13T12:47:31;99965.99;;;32.65;30.92
62592;BME280;48659;41.622;2.276;2023-07-13T12:50:15;99965.29;;;31.50;31.37
62592;BME280;48659;41.622;2.276;2023-07-13T12:52:44;99973.38;;;32.28;30.44
62592;BME280;48659;41.622;2.276;2023-07-13T12:55:14;99970.61;;;31.39;31.15
62592;BME280;48659;41.622;2.276;2023-07-13T12:57:50;99969.30;;;32.65;29.89
62592;BME280;48659;41.622;2.276;2023-07-13T13:00:25;99966.49;;;32.32;29.97
62592;BME280;48659;41.622;2.276;2023-07-13T13:02:56;99966.48;;;32.09;29.78
62592;BME280;48659;41.622;2.276;2023-07-13T13:05:26;99971.26;;;31.07;31.59
62592;BME280;48659;41.622;2.276;2023-07-13T13:07:55;99967.48;;;29.41;32.56
62592;BME280;48659;41.622;2.276;2023-07-13T13:10:23;99965.75;;;31.40;30.79
62592;BME280;48659;41.622;2.276;2023-07-13T13:12:55;99962.02;;;30.88;30.82
62592;BME280;48659;41.622;2.276;2023-07-13T13:15:23;99966.85;;;30.24;32.32